Anchorage/Lake Hood Seaplane Base, Alaska
Current Conditions -  °F | °C
As of 2:53 AM on Sunday 21 Dec 2014 (Local Time) from PALH Reporting Station
Overcast Overcast  
Wind Chill: 20°   Ceiling: 9000
Heat Index: 20°   Visibility: 10mi
Dew Point: 16°   Wind: 0mph
Humidity: 85%   Direction: NA
Pressure: 29.04"   Gusts: NA
Location:  61.18°N, 149.97°W
Report Text: PALH 211153Z 00000KT 10SM SCT065 OVC090 M07/M09 A2904 RMK AO2 SLP835 60000 T10671089 11033 21078 53026
Loading
Personal Weather Stations






























Interactive Weather Map New forecast layout! Learn more

10-Day Weather Forecast

Advertisements
Track Severe Weather on mobile